Four States, West Virginia
Current Conditions -  °F | °C
As of 4:26 AM on Friday 24 Oct 2014 (Local Time) from KCKB Reporting Station
Haze Haze  
Wind Chill: 40°   Ceiling: Unl
Heat Index: 40°   Visibility: 2.5mi
Dew Point: 39°   Wind: 3mph
Humidity: 97%   Direction: 220°SW
Pressure: 30.1"   Gusts: NA
Location:  39.48°N, 80.31°W
Report Text: KCKB 240826Z 22003KT 2 1/2SM BR CLR 04/04 A3010 RMK AO2 VIS 1 1/4V4 T00440039
Loading
Personal Weather Stations






























Interactive Weather Map
Tropical Storm Tracking
New forecast layout! Learn more

10-Day Weather Forecast

Advertisements
Track Severe Weather on mobile